Time;durP1;ratioP1;P1;durP2;ratioP2;P2;SDS_P1;SDS_P2;PMS_P1;PMS_P2;Temp;Humidity;BMP_temperature;BMP_pressure;BME280_temperature;BME280_humidity;BME280_pressure;Samples;Min_cycle;Max_cycle;Signal;HPM_P1;HPM_P2
2021/12/02 00:02:23;;;;;;;4.65;0.90;;;3.30;99.90;;;;;;5018062;28;20049;-48
2021/12/02 00:04:50;;;;;;;3.60;0.90;;;3.20;99.90;;;;;;5018193;28;20118;-47
2021/12/02 00:07:16;;;;;;;8.90;1.33;;;3.20;99.90;;;;;;5014083;28;20131;-48
2021/12/02 00:09:46;;;;;;;4.68;0.70;;;3.20;99.90;;;;;;5021724;28;20056;-47
2021/12/02 00:12:12;;;;;;;3.33;0.80;;;3.20;99.90;;;;;;5018048;28;20053;-49
2021/12/02 00:14:48;;;;;;;6.38;1.05;;;3.10;99.90;;;;;;5017773;28;20076;-47
2021/12/02 00:17:22;;;;;;;3.33;0.88;;;3.10;99.90;;;;;;5018249;28;20045;-49
2021/12/02 00:22:40;;;;;;;4.53;0.73;;;3.00;99.90;;;;;;5019630;28;20578;-49
2021/12/02 00:25:06;;;;;;;2.95;0.80;;;3.00;99.90;;;;;;5018209;28;20116;-47
2021/12/02 00:27:33;;;;;;;4.45;1.10;;;2.90;99.90;;;;;;5018717;28;20045;-48
2021/12/02 00:29:59;;;;;;;1.58;0.60;;;2.90;99.90;;;;;;5015145;28;20491;-48
2021/12/02 00:32:28;;;;;;;3.50;0.85;;;2.90;99.90;;;;;;5022892;28;20080;-48
2021/12/02 00:34:56;;;;;;;4.22;1.25;;;2.90;99.90;;;;;;5007065;28;20550;-48
2021/12/02 00:37:22;;;;;;;4.30;0.73;;;2.90;99.90;;;;;;5018912;28;20049;-48
2021/12/02 00:39:50;;;;;;;3.38;1.02;;;2.90;99.90;;;;;;5016360;28;20046;-50
2021/12/02 00:42:17;;;;;;;7.07;1.27;;;2.90;99.90;;;;;;5020485;28;20057;-50
2021/12/02 00:44:44;;;;;;;1.67;0.50;;;3.00;99.90;;;;;;5024318;28;20045;-49
2021/12/02 00:47:10;;;;;;;5.00;0.82;;;3.10;99.90;;;;;;5004722;28;20053;-51
2021/12/02 00:49:36;;;;;;;5.40;1.00;;;3.10;99.90;;;;;;5019301;28;20061;-48
2021/12/02 00:52:03;;;;;;;5.72;1.10;;;3.20;99.90;;;;;;5009487;28;20087;-50
2021/12/02 00:54:30;;;;;;;3.40;0.88;;;3.20;99.90;;;;;;5015275;28;20084;-49
2021/12/02 00:56:57;;;;;;;4.18;0.82;;;3.20;99.90;;;;;;5020792;28;20045;-48
2021/12/02 00:59:27;;;;;;;5.43;0.90;;;3.30;99.90;;;;;;5003083;28;20091;-48
2021/12/02 01:01:53;;;;;;;6.95;0.90;;;3.30;99.90;;;;;;5025446;28;20088;-47
2021/12/02 01:04:22;;;;;;;2.75;0.75;;;3.30;99.90;;;;;;5018797;28;20065;-48
2021/12/02 01:06:49;;;;;;;6.47;1.00;;;3.40;99.90;;;;;;5021183;28;20125;-48
2021/12/02 01:09:15;;;;;;;5.68;1.02;;;3.40;99.90;;;;;;5020125;28;20479;-48
2021/12/02 01:11:42;;;;;;;5.35;1.13;;;3.40;99.90;;;;;;5021290;28;20049;-49
2021/12/02 01:14:10;;;;;;;7.57;1.70;;;3.40;99.90;;;;;;5021803;28;20049;-47
2021/12/02 01:16:36;;;;;;;8.47;1.20;;;3.30;99.90;;;;;;5024039;28;20059;-47
2021/12/02 01:19:07;;;;;;;7.55;1.10;;;3.20;99.90;;;;;;5024612;28;20049;-47
2021/12/02 01:21:36;;;;;;;5.05;0.93;;;3.20;99.90;;;;;;5024781;28;20128;-48
2021/12/02 01:24:04;;;;;;;6.13;1.30;;;3.10;99.90;;;;;;5019884;28;20458;-48
2021/12/02 01:26:32;;;;;;;7.40;1.20;;;3.00;99.90;;;;;;5024226;28;20054;-48
2021/12/02 01:28:59;;;;;;;8.55;1.38;;;2.90;99.90;;;;;;5006474;28;20069;-48
2021/12/02 01:31:31;;;;;;;6.53;1.30;;;2.80;99.90;;;;;;5006124;28;20061;-49
2021/12/02 01:34:01;;;;;;;7.72;1.10;;;2.80;99.90;;;;;;5016651;28;20500;-48
2021/12/02 01:36:33;;;;;;;8.98;1.33;;;2.90;99.90;;;;;;5022324;28;20053;-47
2021/12/02 01:38:59;;;;;;;4.28;0.90;;;2.90;99.90;;;;;;5024715;28;20508;-48
2021/12/02 01:41:25;;;;;;;4.45;1.48;;;2.90;99.90;;;;;;5021065;28;20046;-47
2021/12/02 01:43:54;;;;;;;4.90;0.60;;;2.90;99.90;;;;;;5024982;28;20052;-48
2021/12/02 01:46:24;;;;;;;4.05;0.60;;;2.90;99.90;;;;;;5002624;28;20075;-47
2021/12/02 01:49:03;;;;;;;5.00;0.90;;;2.90;99.90;;;;;;5020707;28;20056;-48
2021/12/02 01:51:31;;;;;;;4.45;0.70;;;2.80;99.90;;;;;;5018951;28;20054;-47
2021/12/02 01:54:12;;;;;;;4.60;1.15;;;2.80;99.90;;;;;;5018377;28;20060;-48
2021/12/02 01:56:51;;;;;;;4.68;0.80;;;2.80;99.90;;;;;;5016687;28;20068;-50
2021/12/02 01:59:28;;;;;;;3.30;0.70;;;2.70;99.90;;;;;;5019280;28;20054;-51
2021/12/02 02:01:58;;;;;;;3.17;0.90;;;2.70;99.90;;;;;;5021476;28;20053;-49
2021/12/02 02:04:25;;;;;;;5.80;1.35;;;2.60;99.90;;;;;;5024729;28;20049;-47
2021/12/02 02:07:11;;;;;;;9.18;1.52;;;2.60;99.90;;;;;;5023757;28;20048;-48
2021/12/02 02:09:37;;;;;;;5.72;0.98;;;2.60;99.90;;;;;;5024720;28;20053;-49
2021/12/02 02:12:05;;;;;;;7.28;0.80;;;2.60;99.90;;;;;;5020582;28;20500;-48
2021/12/02 02:14:32;;;;;;;4.10;0.90;;;2.60;99.90;;;;;;5024177;28;20166;-47
2021/12/02 02:20:05;;;;;;;4.53;0.77;;;2.50;99.90;;;;;;4991192;28;20062;-49
2021/12/02 02:22:30;;;;;;;3.70;1.42;;;2.50;99.90;;;;;;5000163;28;20536;-47
2021/12/02 02:24:56;;;;;;;2.60;1.00;;;2.50;99.90;;;;;;4998306;28;20061;-48
2021/12/02 02:27:23;;;;;;;8.23;1.33;;;2.40;99.90;;;;;;4996961;28;20046;-47
2021/12/02 02:29:49;;;;;;;5.97;1.10;;;2.40;99.90;;;;;;4988964;28;20616;-48
2021/12/02 02:32:15;;;;;;;5.80;1.30;;;2.30;99.90;;;;;;4994829;28;20052;-50
2021/12/02 02:34:41;;;;;;;5.88;1.10;;;2.30;99.90;;;;;;4990767;28;20507;-49
2021/12/02 02:37:08;;;;;;;7.18;1.45;;;2.20;99.90;;;;;;4993840;28;20145;-47
2021/12/02 02:39:35;;;;;;;4.75;1.10;;;2.20;99.90;;;;;;4989657;28;20054;-47
2021/12/02 02:42:04;;;;;;;8.07;1.38;;;2.20;99.90;;;;;;4994877;28;20061;-47
2021/12/02 02:44:31;;;;;;;5.70;1.30;;;2.20;99.90;;;;;;4989097;28;20086;-49
2021/12/02 02:46:57;;;;;;;5.38;1.30;;;2.10;99.90;;;;;;4998806;28;20081;-50
2021/12/02 02:49:24;;;;;;;7.32;1.80;;;2.10;99.90;;;;;;4991857;28;20169;-48
2021/12/02 02:51:50;;;;;;;5.28;1.80;;;2.10;99.90;;;;;;4995935;28;20101;-51
2021/12/02 02:54:17;;;;;;;12.38;1.80;;;2.00;99.90;;;;;;4993129;28;20046;-49
2021/12/02 02:56:56;;;;;;;5.45;1.83;;;2.00;99.90;;;;;;5015889;28;20144;-51
2021/12/02 02:59:41;;;;;;;8.27;1.50;;;2.00;99.90;;;;;;4996911;28;20504;-49
2021/12/02 03:07:31;;;;;;;5.60;1.45;;;1.90;99.90;;;;;;5000499;28;20136;-50
2021/12/02 03:10:19;;;;;;;7.25;1.45;;;1.90;99.90;;;;;;5015188;28;20120;-48
2021/12/02 03:18:17;;;;;;;2.58;0.50;;;2.00;99.90;;;;;;5002785;28;20076;-48
2021/12/02 03:20:43;;;;;;;1.23;0.50;;;2.10;99.90;;;;;;4994595;28;20602;-47
2021/12/02 03:23:09;;;;;;;2.72;0.60;;;2.20;99.90;;;;;;5022244;28;20045;-48
2021/12/02 03:25:35;;;;;;;4.00;0.70;;;2.20;99.90;;;;;;5022447;28;20049;-47
2021/12/02 03:28:01;;;;;;;2.47;1.02;;;2.30;99.90;;;;;;5023164;28;20499;-50
2021/12/02 03:30:26;;;;;;;2.35;0.50;;;2.30;99.90;;;;;;5022274;28;20053;-50
2021/12/02 03:32:52;;;;;;;3.97;0.50;;;2.30;99.90;;;;;;5023041;28;20100;-51
2021/12/02 03:35:18;;;;;;;4.50;0.60;;;2.30;99.90;;;;;;5009053;28;20049;-47
2021/12/02 03:37:44;;;;;;;2.33;0.40;;;2.30;99.90;;;;;;5004607;28;20056;-47
2021/12/02 03:40:12;;;;;;;2.83;0.47;;;2.30;99.90;;;;;;5001887;28;20049;-48
2021/12/02 03:42:49;;;;;;;2.42;0.75;;;2.30;99.90;;;;;;5018336;28;20045;-46
2021/12/02 03:45:16;;;;;;;1.35;0.40;;;2.30;99.90;;;;;;5019636;28;20514;-47
2021/12/02 03:47:41;;;;;;;5.32;0.60;;;2.20;99.90;;;;;;5019940;28;20127;-47
2021/12/02 03:50:08;;;;;;;1.55;0.43;;;2.20;99.90;;;;;;5018353;28;20464;-47
2021/12/02 03:52:33;;;;;;;0.25;0.20;;;2.20;99.90;;;;;;5001340;28;20096;-47
2021/12/02 03:54:59;;;;;;;4.22;1.20;;;2.10;99.90;;;;;;5019280;28;20088;-48
2021/12/02 03:57:28;;;;;;;3.17;0.50;;;2.10;99.90;;;;;;5019273;28;20053;-47
2021/12/02 03:59:54;;;;;;;1.92;0.28;;;2.00;99.90;;;;;;5021695;28;20061;-49
2021/12/02 04:02:20;;;;;;;3.15;0.35;;;2.00;99.90;;;;;;5020514;28;20415;-48
2021/12/02 04:04:46;;;;;;;7.00;0.85;;;1.90;99.90;;;;;;5002170;28;20071;-47
2021/12/02 04:07:11;;;;;;;1.13;0.43;;;1.90;99.90;;;;;;5017408;28;20053;-50
2021/12/02 04:09:41;;;;;;;3.42;0.52;;;1.90;99.90;;;;;;5022247;28;20650;-48
2021/12/02 04:12:18;;;;;;;1.90;0.45;;;1.90;99.90;;;;;;5021857;28;20096;-50
2021/12/02 04:15:04;;;;;;;3.78;0.90;;;1.90;99.90;;;;;;5019636;28;20037;-48
2021/12/02 04:17:43;;;;;;;2.13;0.50;;;1.90;99.90;;;;;;5020462;28;20049;-50
2021/12/02 04:20:13;;;;;;;1.05;0.52;;;2.00;99.90;;;;;;5012306;28;20064;-47
2021/12/02 04:22:45;;;;;;;3.47;0.50;;;2.10;99.90;;;;;;5020954;28;20057;-47
2021/12/02 04:25:13;;;;;;;3.40;0.50;;;2.10;99.90;;;;;;5000518;28;20636;-47
2021/12/02 04:27:39;;;;;;;2.85;0.40;;;2.20;99.90;;;;;;5021367;28;20046;-48
2021/12/02 04:30:07;;;;;;;3.67;0.82;;;2.20;99.90;;;;;;5020728;28;20124;-47
2021/12/02 04:32:33;;;;;;;4.07;0.57;;;2.30;99.90;;;;;;5008159;28;20147;-48
2021/12/02 04:34:59;;;;;;;2.20;0.45;;;2.30;99.90;;;;;;5016243;28;20606;-48
2021/12/02 04:37:25;;;;;;;2.58;0.40;;;2.40;99.90;;;;;;5007436;28;20057;-47
2021/12/02 04:39:50;;;;;;;3.97;0.75;;;2.40;99.90;;;;;;5025282;28;20120;-52
2021/12/02 04:42:16;;;;;;;4.60;0.60;;;2.40;99.90;;;;;;5025405;28;20458;-47
2021/12/02 04:44:42;;;;;;;2.63;0.90;;;2.40;99.90;;;;;;5021710;28;20042;-49
2021/12/02 04:47:08;;;;;;;4.30;0.50;;;2.40;99.90;;;;;;5024436;28;20627;-48
2021/12/02 04:49:35;;;;;;;4.00;0.73;;;2.40;99.90;;;;;;5019119;28;20519;-49
2021/12/02 04:52:01;;;;;;;2.92;0.52;;;2.40;99.90;;;;;;5025487;28;20124;-48
2021/12/02 04:54:28;;;;;;;4.70;0.82;;;2.40;99.90;;;;;;5022698;28;20046;-48
2021/12/02 04:56:54;;;;;;;3.83;0.50;;;2.40;99.90;;;;;;5025755;28;20048;-49
2021/12/02 04:59:20;;;;;;;4.90;0.73;;;2.40;99.90;;;;;;5024728;28;20056;-47
2021/12/02 05:01:46;;;;;;;4.90;0.80;;;2.40;99.90;;;;;;5007054;28;20053;-46
2021/12/02 05:04:12;;;;;;;2.53;0.80;;;2.50;99.90;;;;;;5005400;28;20427;-47
2021/12/02 05:06:37;;;;;;;3.70;0.65;;;2.40;99.90;;;;;;5006741;28;20130;-48
2021/12/02 05:09:03;;;;;;;5.60;0.70;;;2.40;99.90;;;;;;5007324;28;20471;-48
2021/12/02 05:11:29;;;;;;;2.05;0.65;;;2.40;99.90;;;;;;5025609;28;20057;-48
2021/12/02 05:13:55;;;;;;;12.55;1.75;;;2.40;99.90;;;;;;5025292;28;20056;-49
2021/12/02 05:16:21;;;;;;;4.40;0.60;;;2.40;99.90;;;;;;5026077;28;20057;-48
2021/12/02 05:18:47;;;;;;;5.03;0.73;;;2.40;99.90;;;;;;5026124;28;20064;-50
2021/12/02 05:21:12;;;;;;;2.72;0.50;;;2.40;99.90;;;;;;5024193;28;20072;-48
2021/12/02 05:23:38;;;;;;;2.47;0.45;;;2.50;99.90;;;;;;5023725;28;20503;-53
2021/12/02 05:26:04;;;;;;;4.25;0.52;;;2.50;99.90;;;;;;5006687;28;20060;-47
2021/12/02 05:28:30;;;;;;;1.85;0.70;;;2.50;99.90;;;;;;5021935;28;20089;-48
2021/12/02 05:30:56;;;;;;;2.85;0.50;;;2.50;99.90;;;;;;5003917;28;20488;-48
2021/12/02 05:33:22;;;;;;;5.75;0.60;;;2.50;99.90;;;;;;5004990;28;20069;-48
2021/12/02 05:35:48;;;;;;;1.05;0.43;;;2.50;99.90;;;;;;5013615;28;20052;-48
2021/12/02 05:38:14;;;;;;;2.25;0.50;;;2.50;99.90;;;;;;5018935;28;20050;-47
2021/12/02 05:40:39;;;;;;;2.38;0.40;;;2.40;99.90;;;;;;5020999;28;20056;-50
2021/12/02 05:43:05;;;;;;;0.80;0.47;;;2.30;99.90;;;;;;4999643;28;20080;-50
2021/12/02 05:45:32;;;;;;;1.85;0.40;;;2.30;99.90;;;;;;5024063;28;20063;-52
2021/12/02 05:47:58;;;;;;;1.10;0.38;;;2.30;99.90;;;;;;5021179;28;20054;-48
2021/12/02 05:50:24;;;;;;;2.15;0.40;;;2.30;99.90;;;;;;5011471;28;20066;-49
2021/12/02 05:52:50;;;;;;;2.67;0.30;;;2.20;99.90;;;;;;5010932;28;20064;-48
2021/12/02 05:55:16;;;;;;;2.25;0.50;;;2.20;99.90;;;;;;5022024;28;20520;-48
2021/12/02 05:57:42;;;;;;;4.95;0.40;;;2.10;99.90;;;;;;5022890;28;20053;-47
2021/12/02 06:00:09;;;;;;;6.30;0.98;;;2.00;99.90;;;;;;5022339;28;20041;-50
2021/12/02 06:02:38;;;;;;;3.08;0.50;;;2.00;99.90;;;;;;5024428;28;20053;-47
2021/12/02 06:05:05;;;;;;;2.13;0.63;;;2.00;99.90;;;;;;5024102;28;20427;-48
2021/12/02 06:07:32;;;;;;;3.22;0.98;;;2.00;99.90;;;;;;5021058;28;20053;-48
2021/12/02 06:09:57;;;;;;;4.57;1.20;;;1.90;99.90;;;;;;5023852;28;20045;-47
2021/12/02 06:12:23;;;;;;;3.33;1.38;;;1.90;99.90;;;;;;5023845;28;20042;-49
2021/12/02 06:14:49;;;;;;;4.47;1.40;;;1.80;99.90;;;;;;5020118;28;20057;-49
2021/12/02 06:17:15;;;;;;;5.80;1.02;;;1.80;99.90;;;;;;5023295;28;20076;-49
2021/12/02 06:19:41;;;;;;;2.97;0.73;;;1.80;99.90;;;;;;5022449;28;20053;-51
2021/12/02 06:22:08;;;;;;;1.30;0.98;;;1.80;99.90;;;;;;5021239;28;20041;-47
2021/12/02 06:27:29;;;;;;;1.63;0.60;;;1.90;99.90;;;;;;4945494;29;20051;-50
2021/12/02 06:29:58;;;;;;;2.55;0.85;;;2.00;99.90;;;;;;4944415;29;20051;-53
2021/12/02 06:32:24;;;;;;;4.10;0.90;;;2.00;99.90;;;;;;4943421;29;20055;-47
2021/12/02 06:34:50;;;;;;;8.25;1.35;;;2.00;99.90;;;;;;4941871;29;20043;-51
2021/12/02 06:37:15;;;;;;;3.85;0.77;;;2.00;99.90;;;;;;4927254;29;20589;-48
2021/12/02 06:39:41;;;;;;;10.52;1.38;;;2.00;99.90;;;;;;4942456;29;20206;-48
2021/12/02 06:42:07;;;;;;;4.50;0.50;;;2.00;99.90;;;;;;4926561;29;20066;-49
2021/12/02 06:44:33;;;;;;;1.80;0.50;;;2.00;99.90;;;;;;4942389;29;20055;-48
2021/12/02 06:46:58;;;;;;;2.95;0.60;;;2.00;99.90;;;;;;4928049;29;20158;-47
2021/12/02 06:49:26;;;;;;;5.68;0.70;;;2.10;99.90;;;;;;4934928;29;20058;-48
2021/12/02 06:51:53;;;;;;;3.03;0.82;;;2.10;99.90;;;;;;4924192;29;20552;-49
2021/12/02 06:54:21;;;;;;;5.03;0.70;;;2.20;99.90;;;;;;4921714;29;20083;-49
2021/12/02 06:56:47;;;;;;;1.98;1.13;;;2.20;99.90;;;;;;4922873;29;20065;-48
2021/12/02 06:59:13;;;;;;;1.98;0.60;;;2.20;99.90;;;;;;4921499;29;20056;-47
2021/12/02 07:01:39;;;;;;;5.40;0.80;;;2.20;99.90;;;;;;4907268;29;20471;-47
2021/12/02 07:04:05;;;;;;;6.88;0.75;;;2.30;99.90;;;;;;4966800;28;20093;-48
2021/12/02 07:06:30;;;;;;;3.38;0.60;;;2.30;99.90;;;;;;5003783;28;20042;-47
2021/12/02 07:08:56;;;;;;;5.63;0.90;;;2.40;99.90;;;;;;5002232;28;20549;-49
2021/12/02 07:11:22;;;;;;;4.35;1.17;;;2.40;99.90;;;;;;5002661;28;20081;-47
2021/12/02 07:13:49;;;;;;;2.65;0.93;;;2.40;99.90;;;;;;4984386;28;20046;-47
2021/12/02 07:16:15;;;;;;;5.30;1.45;;;2.40;99.90;;;;;;5003101;28;20552;-50
2021/12/02 07:18:42;;;;;;;5.88;1.35;;;2.40;99.90;;;;;;5002621;28;20385;-48
2021/12/02 07:21:08;;;;;;;5.55;1.17;;;2.50;99.90;;;;;;4968364;28;20060;-47
2021/12/02 07:23:33;;;;;;;5.20;1.20;;;2.50;99.90;;;;;;5002839;28;20041;-47
2021/12/02 07:25:59;;;;;;;3.85;0.60;;;2.50;99.90;;;;;;4983964;28;20053;-49
2021/12/02 07:28:25;;;;;;;96.43;9.40;;;2.50;99.90;;;;;;5002452;28;20050;-47
2021/12/02 07:30:53;;;;;;;3.65;0.40;;;2.60;99.90;;;;;;4982221;28;20056;-50
2021/12/02 07:33:20;;;;;;;0.50;0.30;;;2.50;99.90;;;;;;4985415;28;20054;-47
2021/12/02 07:35:46;;;;;;;1.17;0.45;;;2.50;99.90;;;;;;5000879;28;20046;-50
2021/12/02 07:38:12;;;;;;;1.80;1.13;;;2.50;99.90;;;;;;4999196;28;20436;-48
2021/12/02 07:40:41;;;;;;;2.85;0.80;;;2.50;99.90;;;;;;4998127;28;20049;-47
2021/12/02 07:43:07;;;;;;;2.45;0.52;;;2.50;99.90;;;;;;4996822;28;20552;-50
2021/12/02 07:45:36;;;;;;;0.98;0.35;;;2.50;99.90;;;;;;4979439;28;20167;-50
2021/12/02 07:48:06;;;;;;;2.28;0.50;;;2.40;99.90;;;;;;4999184;28;20042;-48
2021/12/02 07:50:34;;;;;;;2.35;0.55;;;2.40;99.90;;;;;;5011959;28;20063;-47
2021/12/02 07:53:06;;;;;;;2.75;0.40;;;2.40;99.90;;;;;;5012919;28;20064;-48
2021/12/02 07:55:36;;;;;;;3.22;1.30;;;2.30;99.90;;;;;;5012569;28;20049;-48
2021/12/02 07:58:09;;;;;;;27.52;22.75;;;2.30;99.90;;;;;;5015250;28;20443;-47
2021/12/02 08:00:35;;;;;;;;;;;2.30;99.90;;;;;;4994542;28;20063;-50
2021/12/02 08:03:01;;;;;;;58.15;53.00;;;2.20;99.90;;;;;;5011801;28;19929;-48
2021/12/02 08:05:27;;;;;;;2.83;2.13;;;2.10;99.90;;;;;;5009631;28;20041;-50
2021/12/02 08:07:54;;;;;;;3.25;1.35;;;2.10;99.90;;;;;;5017374;28;20506;-46
2021/12/02 08:10:21;;;;;;;3.90;1.02;;;2.10;99.90;;;;;;5003176;28;20053;-51
2021/12/02 08:12:48;;;;;;;10.75;7.40;;;2.00;99.90;;;;;;5018784;28;20084;-48
2021/12/02 08:15:20;;;;;;;52.75;40.85;;;2.00;99.90;;;;;;5017065;28;20128;-48
2021/12/02 08:17:46;;;;;;;6.05;1.92;;;2.00;99.90;;;;;;5001902;28;20069;-48
2021/12/02 08:20:12;;;;;;;71.13;55.10;;;1.90;99.90;;;;;;5020362;28;20053;-48
2021/12/02 08:22:38;;;;;;;7.80;4.13;;;1.90;99.90;;;;;;5020332;28;20045;-49
2021/12/02 08:25:05;;;;;;;8.52;5.43;;;1.90;99.90;;;;;;5021450;28;20075;-48
2021/12/02 08:27:31;;;;;;;10.15;3.10;;;1.90;99.90;;;;;;5021993;28;20052;-47
2021/12/02 08:30:02;;;;;;;5.80;2.80;;;2.00;99.90;;;;;;5021066;28;20041;-47
2021/12/02 08:32:28;;;;;;;4.95;1.83;;;2.00;99.90;;;;;;5021902;28;20281;-48
2021/12/02 08:34:56;;;;;;;2.88;0.90;;;2.10;99.90;;;;;;5012217;28;20052;-47
2021/12/02 08:37:26;;;;;;;3.78;1.52;;;2.20;99.90;;;;;;5002907;28;20049;-51
2021/12/02 08:39:52;;;;;;;7.38;1.95;;;2.30;99.90;;;;;;5020388;28;20045;-49
2021/12/02 08:42:20;;;;;;;7.93;3.40;;;2.40;99.90;;;;;;5023939;28;20045;-50
2021/12/02 08:44:49;;;;;;;7.47;4.13;;;2.50;99.90;;;;;;5023056;28;20156;-49
2021/12/02 08:47:15;;;;;;;7.57;3.95;;;2.50;99.90;;;;;;5024539;28;20049;-48
2021/12/02 08:49:44;;;;;;;8.90;5.13;;;2.60;99.90;;;;;;5018793;28;20053;-50
2021/12/02 08:52:10;;;;;;;7.57;4.30;;;2.60;99.90;;;;;;5011888;28;20049;-48
2021/12/02 08:54:36;;;;;;;6.90;3.25;;;2.60;99.90;;;;;;5017147;28;20077;-50
2021/12/02 08:57:02;;;;;;;15.35;8.98;;;2.70;99.90;;;;;;5018004;28;20088;-47
2021/12/02 08:59:28;;;;;;;12.38;8.02;;;2.70;99.90;;;;;;5001002;28;20049;-48
2021/12/02 09:01:54;;;;;;;12.15;8.27;;;2.80;99.90;;;;;;5020931;28;20385;-49
2021/12/02 09:04:19;;;;;;;8.00;4.40;;;2.90;99.90;;;;;;5016540;28;20045;-50
2021/12/02 09:06:45;;;;;;;8.80;4.32;;;3.00;99.90;;;;;;4999632;28;20121;-48
2021/12/02 09:09:15;;;;;;;4.15;2.42;;;3.00;99.90;;;;;;5018244;28;20049;-47
2021/12/02 09:11:41;;;;;;;10.77;4.68;;;3.00;99.90;;;;;;5018409;28;20484;-50
2021/12/02 09:14:09;;;;;;;5.90;5.20;;;3.00;99.90;;;;;;5002314;28;20053;-49
2021/12/02 09:16:40;;;;;;;6.38;2.80;;;3.00;99.90;;;;;;5019425;28;20049;-46
2021/12/02 09:19:06;;;;;;;4.53;2.15;;;3.00;99.90;;;;;;5024885;28;20049;-47
2021/12/02 09:21:32;;;;;;;7.38;2.28;;;3.00;99.90;;;;;;5019887;28;20393;-48
2021/12/02 09:23:58;;;;;;;3.85;1.10;;;3.00;99.90;;;;;;5025151;28;20045;-48
2021/12/02 09:26:24;;;;;;;3.22;1.23;;;3.00;99.90;;;;;;5007546;28;20060;-51
2021/12/02 09:28:53;;;;;;;5.43;1.50;;;3.00;99.90;;;;;;5006641;28;20057;-47
2021/12/02 09:31:21;;;;;;;7.28;2.15;;;3.00;99.90;;;;;;5025809;28;20388;-47
2021/12/02 09:33:50;;;;;;;4.50;2.13;;;3.00;99.90;;;;;;5021023;28;20590;-47
2021/12/02 09:36:17;;;;;;;6.57;1.92;;;3.00;99.90;;;;;;5020058;28;20049;-48
2021/12/02 09:38:44;;;;;;;8.05;1.88;;;3.00;99.90;;;;;;5008154;28;20111;-49
2021/12/02 09:41:09;;;;;;;4.18;1.20;;;3.10;99.90;;;;;;5025817;28;20053;-49
2021/12/02 09:43:39;;;;;;;3.55;1.48;;;3.00;99.90;;;;;;5007857;28;20053;-50
2021/12/02 09:46:05;;;;;;;6.28;3.03;;;3.00;99.90;;;;;;5027267;28;20068;-51
2021/12/02 09:48:33;;;;;;;7.13;4.53;;;3.00;99.90;;;;;;5007353;28;20512;-49
2021/12/02 09:51:08;;;;;;;8.63;2.10;;;3.00;99.90;;;;;;5023940;28;20056;-48
2021/12/02 09:53:48;;;;;;;8.00;1.65;;;3.10;99.90;;;;;;5018442;28;20103;-47
2021/12/02 09:56:48;;;;;;;5.55;1.65;;;3.10;99.90;;;;;;5020549;28;20064;-51
2021/12/02 09:59:12;;;;;;;5.70;2.42;;;3.10;99.90;;;;;;4995167;28;20463;-48
2021/12/02 10:04:06;;;;;;;23.65;20.77;;;3.10;99.90;;;;;;5015847;28;20053;-47
2021/12/02 10:06:32;;;;;;;8.52;5.25;;;3.10;99.90;;;;;;5012189;28;20058;-49
2021/12/02 10:09:40;;;;;;;3.28;1.73;;;3.10;99.90;;;;;;5021387;28;20060;-48
2021/12/02 10:12:13;;;;;;;7.20;2.47;;;3.20;99.90;;;;;;5017133;28;20053;-47
2021/12/02 10:14:59;;;;;;;6.68;1.00;;;3.30;99.90;;;;;;5001640;28;20042;-47
2021/12/02 10:23:10;;;;;;;3.75;1.05;;;3.50;99.90;;;;;;5016640;28;20255;-47
2021/12/02 10:25:36;;;;;;;5.63;1.02;;;3.60;99.90;;;;;;5013124;28;20045;-48
2021/12/02 10:28:18;;;;;;;4.40;1.13;;;3.80;99.90;;;;;;5022917;28;20134;-48
2021/12/02 10:30:53;;;;;;;7.35;1.00;;;4.10;99.90;;;;;;5007488;28;20412;-48
2021/12/02 10:33:53;;;;;;;3.20;0.85;;;4.30;99.90;;;;;;5012200;28;20080;-49
2021/12/02 10:36:45;;;;;;;1.20;0.63;;;3.70;99.90;;;;;;4953739;28;20556;-46
2021/12/02 10:39:21;;;;;;;2.20;0.80;;;3.20;99.90;;;;;;4937084;28;20105;-49
2021/12/02 10:42:04;;;;;;;0.90;0.50;;;2.60;99.90;;;;;;4942356;28;20506;-48
2021/12/02 10:44:34;;;;;;;1.88;0.55;;;2.20;99.90;;;;;;4942274;28;20080;-48
2021/12/02 10:47:03;;;;;;;1.75;0.55;;;2.10;99.90;;;;;;4947090;28;20063;-48
2021/12/02 10:49:39;;;;;;;3.83;0.70;;;2.10;99.90;;;;;;4926989;29;20074;-49
2021/12/02 10:52:06;;;;;;;1.25;0.55;;;2.00;99.90;;;;;;4943393;29;20610;-47
2021/12/02 10:54:38;;;;;;;3.05;0.60;;;2.00;99.90;;;;;;4943434;29;20067;-48
2021/12/02 10:57:21;;;;;;;1.30;0.47;;;2.00;99.90;;;;;;4943799;29;20574;-48
2021/12/02 10:59:51;;;;;;;2.25;0.60;;;1.90;99.90;;;;;;4942215;28;20083;-49
2021/12/02 11:02:24;;;;;;;0.60;0.50;;;1.90;99.90;;;;;;4944628;29;20062;-50
2021/12/02 11:05:19;;;;;;;3.25;0.57;;;1.90;99.90;;;;;;4930874;29;20051;-51
2021/12/02 11:07:56;;;;;;;1.50;0.68;;;1.90;99.90;;;;;;4942220;29;20083;-51
2021/12/02 11:10:24;;;;;;;3.78;0.60;;;1.80;99.90;;;;;;4942514;29;20142;-49
2021/12/02 11:12:55;;;;;;;2.97;0.60;;;1.80;99.90;;;;;;4961149;28;20119;-48
2021/12/02 11:15:27;;;;;;;1.92;0.70;;;1.70;99.90;;;;;;5021894;28;20048;-46
2021/12/02 11:17:59;;;;;;;1.45;0.55;;;1.70;99.90;;;;;;5012026;28;20053;-48
2021/12/02 11:20:32;;;;;;;3.05;0.60;;;1.70;99.90;;;;;;5008033;28;20046;-47
2021/12/02 11:22:59;;;;;;;;;;;1.80;99.90;;;;;;4986705;28;20473;-51
2021/12/02 11:25:26;;;;;;;2.30;0.63;;;1.90;99.90;;;;;;5004486;28;20680;-48
2021/12/02 11:27:53;;;;;;;2.33;0.80;;;2.00;99.90;;;;;;5003965;28;20054;-47
2021/12/02 11:30:24;;;;;;;4.07;0.88;;;2.10;99.90;;;;;;4994305;28;20477;-48
2021/12/02 11:32:52;;;;;;;2.17;0.80;;;2.20;99.90;;;;;;5012818;28;20165;-51
2021/12/02 11:35:20;;;;;;;4.30;1.35;;;2.30;99.90;;;;;;5000018;28;20588;-48
2021/12/02 11:37:56;;;;;;;4.20;1.23;;;2.40;99.90;;;;;;5014188;28;20103;-47
2021/12/02 11:40:26;;;;;;;2.72;1.10;;;2.50;99.90;;;;;;5003068;28;20599;-47
2021/12/02 11:42:52;;;;;;;3.63;0.70;;;2.50;99.90;;;;;;5009567;28;20126;-48
2021/12/02 11:45:20;;;;;;;1.45;0.70;;;2.60;99.90;;;;;;5016405;28;20700;-48
2021/12/02 11:47:48;;;;;;;3.92;0.70;;;2.70;99.90;;;;;;5003866;28;20045;-48
2021/12/02 11:50:15;;;;;;;1.73;0.60;;;2.80;99.90;;;;;;5004869;28;20519;-50
2021/12/02 11:52:42;;;;;;;1.60;0.60;;;2.80;99.90;;;;;;4992056;28;20145;-48
2021/12/02 11:55:16;;;;;;;1.35;0.73;;;2.90;99.90;;;;;;4998281;28;20061;-50
2021/12/02 11:57:43;;;;;;;3.30;0.70;;;3.00;99.90;;;;;;5008398;28;20052;-48
2021/12/02 12:00:12;;;;;;;1.88;0.77;;;3.00;99.90;;;;;;5023189;28;20111;-48
2021/12/02 12:02:52;;;;;;;3.17;1.17;;;3.10;99.90;;;;;;5016501;28;20048;-49
2021/12/02 12:05:24;;;;;;;0.65;0.50;;;3.20;99.90;;;;;;5023306;28;20085;-47
2021/12/02 12:07:50;;;;;;;2.15;0.63;;;3.20;99.90;;;;;;5024037;28;20132;-50
2021/12/02 12:10:20;;;;;;;4.97;0.88;;;3.30;99.90;;;;;;5025122;28;20052;-48
2021/12/02 12:12:47;;;;;;;3.90;0.90;;;3.30;99.90;;;;;;5024130;28;20133;-48
2021/12/02 12:15:32;;;;;;;3.25;0.90;;;3.30;99.90;;;;;;5022844;28;20056;-48
2021/12/02 12:18:00;;;;;;;6.07;0.77;;;3.30;99.90;;;;;;5023110;28;20075;-50
2021/12/02 12:20:52;;;;;;;1.98;0.75;;;3.40;99.90;;;;;;5007749;28;20045;-51
2021/12/02 12:24:00;;;;;;;2.28;0.88;;;3.40;99.90;;;;;;5003828;28;20594;-49
2021/12/02 12:26:32;;;;;;;4.00;0.80;;;3.40;99.90;;;;;;4953724;28;20069;-48
2021/12/02 12:29:08;;;;;;;2.25;0.98;;;3.40;99.90;;;;;;4960287;28;20644;-51
2021/12/02 12:32:03;;;;;;;5.13;0.90;;;3.30;99.90;;;;;;4959239;28;20077;-48
2021/12/02 12:36:56;;;;;;;2.38;0.75;;;3.40;99.90;;;;;;4961106;28;20055;-50
2021/12/02 12:39:25;;;;;;;1.20;0.70;;;3.40;99.90;;;;;;4960751;28;20138;-50
2021/12/02 12:42:11;;;;;;;1.50;0.77;;;3.40;99.90;;;;;;4960859;28;20073;-51
2021/12/02 12:44:50;;;;;;;3.83;0.88;;;3.40;99.90;;;;;;4961363;28;20051;-50
2021/12/02 12:47:18;;;;;;;2.13;0.60;;;3.40;99.90;;;;;;4960704;28;20051;-48
2021/12/02 12:49:45;;;;;;;3.47;0.70;;;3.50;99.90;;;;;;4951852;28;20055;-48
2021/12/02 12:52:17;;;;;;;2.67;0.95;;;3.50;99.90;;;;;;4943243;28;20205;-48
2021/12/02 12:55:18;;;;;;;1.75;0.90;;;3.50;99.90;;;;;;4929044;29;20070;-48
2021/12/02 12:58:16;;;;;;;4.15;0.90;;;3.50;99.90;;;;;;4945317;29;20047;-48
2021/12/02 13:01:21;;;;;;;2.05;0.95;;;3.60;99.90;;;;;;4945854;28;20059;-49
2021/12/02 13:04:22;;;;;;;3.58;0.77;;;3.60;99.90;;;;;;4971048;28;20066;-50
2021/12/02 13:06:53;;;;;;;2.53;0.93;;;3.70;99.90;;;;;;4872472;29;20100;-48
2021/12/02 13:09:42;;;;;;;2.03;1.10;;;3.80;99.90;;;;;;4884398;29;20571;-47
2021/12/02 13:12:12;;;;;;;3.22;0.80;;;4.00;99.90;;;;;;4888161;29;20063;-50
2021/12/02 13:14:40;;;;;;;1.20;0.52;;;4.10;99.90;;;;;;4887961;29;20318;-50
2021/12/02 13:17:37;;;;;;;2.55;0.90;;;4.10;99.90;;;;;;4883527;29;20095;-49
2021/12/02 13:20:15;;;;;;;3.42;0.70;;;3.90;99.90;;;;;;5003530;28;20499;-50
2021/12/02 13:22:41;;;;;;;2.13;0.45;;;3.80;99.90;;;;;;5027707;28;20506;-50
2021/12/02 13:25:26;;;;;;;2.67;0.50;;;3.70;99.90;;;;;;4994449;28;20052;-51
2021/12/02 13:27:53;;;;;;;5.05;0.60;;;3.60;99.90;;;;;;5007345;28;20408;-55
2021/12/02 13:30:26;;;;;;;3.85;0.60;;;3.60;99.90;;;;;;5024698;28;20041;-48
2021/12/02 13:32:57;;;;;;;2.90;0.55;;;3.60;99.90;;;;;;5008629;28;20056;-47
2021/12/02 13:35:25;;;;;;;1.35;0.57;;;3.70;99.90;;;;;;5007538;28;20057;-51
2021/12/02 13:38:05;;;;;;;2.95;0.60;;;3.70;99.90;;;;;;4992895;28;20056;-47
2021/12/02 13:40:38;;;;;;;1.92;0.55;;;3.70;99.90;;;;;;5025948;28;20116;-48
2021/12/02 13:43:04;;;;;;;3.78;0.60;;;3.70;99.90;;;;;;5010175;28;20407;-49